sensor_id;sensor_type;location;lat;lon;timestamp;pressure;altitude;pressure_sealevel;temperature;humidity
10988;BME280;5547;42.672;23.230;2022-11-20T00:01:37;92644.41;;;15.05;67.04
10988;BME280;5547;42.672;23.230;2022-11-20T00:04:02;92642.66;;;15.02;67.51
10988;BME280;5547;42.672;23.230;2022-11-20T00:06:28;92653.66;;;15.04;67.48
10988;BME280;5547;42.672;23.230;2022-11-20T00:08:54;92645.47;;;14.89;68.32
10988;BME280;5547;42.672;23.230;2022-11-20T00:11:20;92649.94;;;14.74;69.58
10988;BME280;5547;42.672;23.230;2022-11-20T00:13:46;92642.19;;;14.76;68.73
10988;BME280;5547;42.672;23.230;2022-11-20T00:16:13;92652.78;;;14.80;68.55
10988;BME280;5547;42.672;23.230;2022-11-20T00:18:39;92632.25;;;14.95;67.36
10988;BME280;5547;42.672;23.230;2022-11-20T00:21:05;92631.19;;;14.92;67.34
10988;BME280;5547;42.672;23.230;2022-11-20T00:23:31;92642.66;;;14.93;67.73
10988;BME280;5547;42.672;23.230;2022-11-20T00:25:56;92630.59;;;14.98;67.38
10988;BME280;5547;42.672;23.230;2022-11-20T00:28:25;92645.03;;;14.91;68.06
10988;BME280;5547;42.672;23.230;2022-11-20T00:30:50;92626.28;;;14.91;67.82
10988;BME280;5547;42.672;23.230;2022-11-20T00:33:16;92640.13;;;14.80;68.55
10988;BME280;5547;42.672;23.230;2022-11-20T00:35:41;92622.13;;;14.71;68.65
10988;BME280;5547;42.672;23.230;2022-11-20T00:38:06;92636.41;;;14.78;68.05
10988;BME280;5547;42.672;23.230;2022-11-20T00:40:32;92656.03;;;14.84;68.39
10988;BME280;5547;42.672;23.230;2022-11-20T00:42:57;92644.56;;;14.74;68.80
10988;BME280;5547;42.672;23.230;2022-11-20T00:45:22;92659.75;;;14.77;68.85
10988;BME280;5547;42.672;23.230;2022-11-20T00:47:47;92660.06;;;14.70;69.21
10988;BME280;5547;42.672;23.230;2022-11-20T00:50:13;92665.56;;;14.66;69.86
10988;BME280;5547;42.672;23.230;2022-11-20T00:52:38;92664.66;;;14.69;69.28
10988;BME280;5547;42.672;23.230;2022-11-20T00:55:03;92661.97;;;14.79;68.92
10988;BME280;5547;42.672;23.230;2022-11-20T00:57:29;92660.38;;;14.72;69.64
10988;BME280;5547;42.672;23.230;2022-11-20T00:59:54;92650.69;;;14.65;69.76
10988;BME280;5547;42.672;23.230;2022-11-20T01:02:19;92659.91;;;14.74;69.25
10988;BME280;5547;42.672;23.230;2022-11-20T01:04:45;92668.53;;;14.68;70.29
10988;BME280;5547;42.672;23.230;2022-11-20T01:07:10;92647.28;;;14.65;70.24
10988;BME280;5547;42.672;23.230;2022-11-20T01:09:35;92644.13;;;14.57;70.43
10988;BME280;5547;42.672;23.230;2022-11-20T01:12:01;92643.84;;;14.55;70.66
10988;BME280;5547;42.672;23.230;2022-11-20T01:14:26;92652.03;;;14.61;70.41
10988;BME280;5547;42.672;23.230;2022-11-20T01:16:51;92629.25;;;14.47;70.92
10988;BME280;5547;42.672;23.230;2022-11-20T01:19:18;92624.19;;;14.40;71.41
10988;BME280;5547;42.672;23.230;2022-11-20T01:21:44;92624.19;;;14.31;71.67
10988;BME280;5547;42.672;23.230;2022-11-20T01:24:13;92616.91;;;14.49;70.51
10988;BME280;5547;42.672;23.230;2022-11-20T01:26:40;92614.97;;;14.50;69.89
10988;BME280;5547;42.672;23.230;2022-11-20T01:29:13;92621.56;;;14.67;68.68
10988;BME280;5547;42.672;23.230;2022-11-20T01:31:38;92609.22;;;14.70;68.08
10988;BME280;5547;42.672;23.230;2022-11-20T01:34:05;92616.31;;;14.82;67.72
10988;BME280;5547;42.672;23.230;2022-11-20T01:36:31;92602.81;;;14.86;67.28
10988;BME280;5547;42.672;23.230;2022-11-20T01:38:57;92588.81;;;14.82;67.36
10988;BME280;5547;42.672;23.230;2022-11-20T01:41:23;92605.03;;;14.78;67.52
10988;BME280;5547;42.672;23.230;2022-11-20T01:44:08;92593.28;;;14.66;68.34
10988;BME280;5547;42.672;23.230;2022-11-20T01:46:35;92591.50;;;14.63;68.59
10988;BME280;5547;42.672;23.230;2022-11-20T01:51:42;92595.50;;;14.86;67.10
10988;BME280;5547;42.672;23.230;2022-11-20T01:54:12;92616.47;;;14.69;68.33
10988;BME280;5547;42.672;23.230;2022-11-20T01:56:39;92600.59;;;14.57;69.00
10988;BME280;5547;42.672;23.230;2022-11-20T01:59:06;92612.94;;;14.54;68.78
10988;BME280;5547;42.672;23.230;2022-11-20T02:01:33;92618.56;;;14.65;68.48
10988;BME280;5547;42.672;23.230;2022-11-20T02:03:58;92620.94;;;14.63;67.95
10988;BME280;5547;42.672;23.230;2022-11-20T02:06:44;92627.19;;;14.51;69.25
10988;BME280;5547;42.672;23.230;2022-11-20T02:09:11;92620.31;;;14.50;68.86
10988;BME280;5547;42.672;23.230;2022-11-20T02:11:36;92622.84;;;14.44;68.98
10988;BME280;5547;42.672;23.230;2022-11-20T02:14:02;92628.34;;;14.41;69.42
10988;BME280;5547;42.672;23.230;2022-11-20T02:16:28;92626.69;;;14.25;70.46
10988;BME280;5547;42.672;23.230;2022-11-20T02:18:54;92636.66;;;14.24;69.51
10988;BME280;5547;42.672;23.230;2022-11-20T02:26:38;92636.97;;;14.36;69.66
10988;BME280;5547;42.672;23.230;2022-11-20T02:29:04;92631.16;;;14.28;69.74
10988;BME280;5547;42.672;23.230;2022-11-20T02:31:34;92638.28;;;14.31;70.04
10988;BME280;5547;42.672;23.230;2022-11-20T02:34:00;92631.59;;;14.26;70.01
10988;BME280;5547;42.672;23.230;2022-11-20T02:36:26;92637.38;;;14.25;70.27
10988;BME280;5547;42.672;23.230;2022-11-20T02:38:52;92647.47;;;14.21;70.48
10988;BME280;5547;42.672;23.230;2022-11-20T02:41:18;92650.44;;;14.23;70.46
10988;BME280;5547;42.672;23.230;2022-11-20T02:43:43;92648.53;;;14.23;70.90
10988;BME280;5547;42.672;23.230;2022-11-20T02:46:08;92650.75;;;14.25;71.39
10988;BME280;5547;42.672;23.230;2022-11-20T02:48:34;92653.41;;;14.16;71.46
10988;BME280;5547;42.672;23.230;2022-11-20T02:50:59;92666.34;;;14.08;72.23
10988;BME280;5547;42.672;23.230;2022-11-20T02:53:25;92654.63;;;14.15;72.55
10988;BME280;5547;42.672;23.230;2022-11-20T02:55:50;92655.66;;;14.17;72.29
10988;BME280;5547;42.672;23.230;2022-11-20T02:58:15;92649.41;;;14.20;72.35
10988;BME280;5547;42.672;23.230;2022-11-20T03:00:41;92654.16;;;14.16;72.24
10988;BME280;5547;42.672;23.230;2022-11-20T03:03:06;92660.84;;;14.21;72.30
10988;BME280;5547;42.672;23.230;2022-11-20T03:05:31;92658.94;;;14.21;72.17
10988;BME280;5547;42.672;23.230;2022-11-20T03:07:57;92652.38;;;14.22;72.56
10988;BME280;5547;42.672;23.230;2022-11-20T03:10:22;92671.00;;;14.35;71.77
10988;BME280;5547;42.672;23.230;2022-11-20T03:12:47;92664.59;;;14.33;72.23
10988;BME280;5547;42.672;23.230;2022-11-20T03:15:17;92661.16;;;14.23;72.43
10988;BME280;5547;42.672;23.230;2022-11-20T03:17:42;92655.53;;;14.30;71.87
10988;BME280;5547;42.672;23.230;2022-11-20T03:20:07;92663.69;;;14.17;72.83
10988;BME280;5547;42.672;23.230;2022-11-20T03:22:34;92654.44;;;14.09;72.94
10988;BME280;5547;42.672;23.230;2022-11-20T03:24:59;92645.22;;;14.01;73.31
10988;BME280;5547;42.672;23.230;2022-11-20T03:27:24;92643.16;;;14.05;73.21
10988;BME280;5547;42.672;23.230;2022-11-20T03:29:50;92645.19;;;13.92;74.11
10988;BME280;5547;42.672;23.230;2022-11-20T03:32:15;92652.59;;;13.87;74.42
10988;BME280;5547;42.672;23.230;2022-11-20T03:34:40;92645.00;;;13.86;74.11
10988;BME280;5547;42.672;23.230;2022-11-20T03:37:05;92648.72;;;13.88;74.20
10988;BME280;5547;42.672;23.230;2022-11-20T03:39:31;92665.34;;;13.83;73.89
10988;BME280;5547;42.672;23.230;2022-11-20T03:41:56;92650.94;;;13.81;74.12
10988;BME280;5547;42.672;23.230;2022-11-20T03:44:22;92652.72;;;13.84;73.96
10988;BME280;5547;42.672;23.230;2022-11-20T03:46:47;92643.22;;;13.83;73.91
10988;BME280;5547;42.672;23.230;2022-11-20T03:49:12;92648.16;;;13.84;73.56
10988;BME280;5547;42.672;23.230;2022-11-20T03:51:38;92661.50;;;13.84;73.76
10988;BME280;5547;42.672;23.230;2022-11-20T03:54:04;92660.47;;;13.82;73.43
10988;BME280;5547;42.672;23.230;2022-11-20T03:56:31;92675.16;;;13.77;73.77
10988;BME280;5547;42.672;23.230;2022-11-20T03:58:57;92680.00;;;13.70;74.42
10988;BME280;5547;42.672;23.230;2022-11-20T04:01:24;92666.81;;;13.75;73.85
10988;BME280;5547;42.672;23.230;2022-11-20T04:03:51;92674.53;;;13.73;73.87
10988;BME280;5547;42.672;23.230;2022-11-20T04:06:18;92680.44;;;13.68;74.56
10988;BME280;5547;42.672;23.230;2022-11-20T04:08:43;92673.75;;;13.63;74.27
10988;BME280;5547;42.672;23.230;2022-11-20T04:11:09;92673.13;;;13.59;74.70
10988;BME280;5547;42.672;23.230;2022-11-20T04:13:35;92670.72;;;13.52;75.14
10988;BME280;5547;42.672;23.230;2022-11-20T04:16:00;92669.38;;;13.48;74.81
10988;BME280;5547;42.672;23.230;2022-11-20T04:18:26;92664.84;;;13.66;73.91
10988;BME280;5547;42.672;23.230;2022-11-20T04:20:51;92664.84;;;13.66;73.58
10988;BME280;5547;42.672;23.230;2022-11-20T04:23:16;92665.28;;;13.65;73.90
10988;BME280;5547;42.672;23.230;2022-11-20T04:25:42;92664.69;;;13.61;74.23
10988;BME280;5547;42.672;23.230;2022-11-20T04:28:07;92666.94;;;13.72;73.40
10988;BME280;5547;42.672;23.230;2022-11-20T04:30:32;92670.03;;;13.70;73.30
10988;BME280;5547;42.672;23.230;2022-11-20T04:32:57;92679.28;;;13.78;73.18
10988;BME280;5547;42.672;23.230;2022-11-20T04:35:23;92679.59;;;13.80;72.72
10988;BME280;5547;42.672;23.230;2022-11-20T04:37:50;92679.00;;;13.76;73.62
10988;BME280;5547;42.672;23.230;2022-11-20T04:40:16;92686.06;;;13.70;73.90
10988;BME280;5547;42.672;23.230;2022-11-20T04:42:41;92681.00;;;13.63;73.97
10988;BME280;5547;42.672;23.230;2022-11-20T04:45:06;92670.63;;;13.65;74.28
10988;BME280;5547;42.672;23.230;2022-11-20T04:47:32;92675.66;;;13.63;74.52
10988;BME280;5547;42.672;23.230;2022-11-20T04:49:57;92667.06;;;13.59;74.77
10988;BME280;5547;42.672;23.230;2022-11-20T04:52:22;92673.88;;;13.60;74.70
10988;BME280;5547;42.672;23.230;2022-11-20T04:54:48;92655.78;;;13.64;75.02
10988;BME280;5547;42.672;23.230;2022-11-20T04:57:13;92662.34;;;13.72;74.32
10988;BME280;5547;42.672;23.230;2022-11-20T04:59:39;92652.97;;;13.68;74.89
10988;BME280;5547;42.672;23.230;2022-11-20T05:02:04;92655.50;;;13.71;74.57
10988;BME280;5547;42.672;23.230;2022-11-20T05:04:30;92639.16;;;13.69;74.87
10988;BME280;5547;42.672;23.230;2022-11-20T05:06:55;92642.44;;;13.64;75.16
10988;BME280;5547;42.672;23.230;2022-11-20T05:09:20;92634.41;;;13.64;75.18
10988;BME280;5547;42.672;23.230;2022-11-20T05:11:46;92620.44;;;13.60;75.72
10988;BME280;5547;42.672;23.230;2022-11-20T05:14:11;92623.25;;;13.56;76.09
10988;BME280;5547;42.672;23.230;2022-11-20T05:16:37;92634.94;;;13.50;76.41
10988;BME280;5547;42.672;23.230;2022-11-20T05:19:02;92627.63;;;13.41;76.77
10988;BME280;5547;42.672;23.230;2022-11-20T05:21:29;92637.69;;;13.37;77.25
10988;BME280;5547;42.672;23.230;2022-11-20T05:23:54;92629.25;;;13.38;77.42
10988;BME280;5547;42.672;23.230;2022-11-20T05:26:20;92629.06;;;13.33;77.73
10988;BME280;5547;42.672;23.230;2022-11-20T05:28:49;92630.25;;;13.32;77.74
10988;BME280;5547;42.672;23.230;2022-11-20T05:31:16;92642.88;;;13.31;77.87
10988;BME280;5547;42.672;23.230;2022-11-20T05:33:42;92644.66;;;13.34;77.49
10988;BME280;5547;42.672;23.230;2022-11-20T05:36:08;92639.56;;;13.27;78.09
10988;BME280;5547;42.672;23.230;2022-11-20T05:38:34;92646.72;;;13.30;77.46
10988;BME280;5547;42.672;23.230;2022-11-20T05:41:05;92645.13;;;13.42;77.17
10988;BME280;5547;42.672;23.230;2022-11-20T05:43:37;92644.97;;;13.36;77.32
10988;BME280;5547;42.672;23.230;2022-11-20T05:46:04;92639.75;;;13.33;77.63
10988;BME280;5547;42.672;23.230;2022-11-20T05:48:30;92639.09;;;13.51;76.72
10988;BME280;5547;42.672;23.230;2022-11-20T05:50:59;92648.84;;;13.44;76.65
10988;BME280;5547;42.672;23.230;2022-11-20T05:53:24;92645.91;;;13.42;76.52
10988;BME280;5547;42.672;23.230;2022-11-20T05:55:57;92643.50;;;13.44;76.77
10988;BME280;5547;42.672;23.230;2022-11-20T05:58:22;92642.19;;;13.49;76.65
10988;BME280;5547;42.672;23.230;2022-11-20T06:00:47;92660.91;;;13.49;76.74
10988;BME280;5547;42.672;23.230;2022-11-20T06:03:13;92662.25;;;13.54;76.32
10988;BME280;5547;42.672;23.230;2022-11-20T06:05:38;92662.88;;;13.58;75.95
10988;BME280;5547;42.672;23.230;2022-11-20T06:08:03;92678.31;;;13.63;75.82
10988;BME280;5547;42.672;23.230;2022-11-20T06:10:29;92673.75;;;13.63;75.83
10988;BME280;5547;42.672;23.230;2022-11-20T06:12:56;92676.84;;;13.62;76.42
10988;BME280;5547;42.672;23.230;2022-11-20T06:15:22;92673.91;;;13.69;76.30
10988;BME280;5547;42.672;23.230;2022-11-20T06:17:51;92677.47;;;13.66;76.01
10988;BME280;5547;42.672;23.230;2022-11-20T06:20:16;92690.03;;;13.87;75.26
10988;BME280;5547;42.672;23.230;2022-11-20T06:22:41;92693.66;;;14.03;75.22
10988;BME280;5547;42.672;23.230;2022-11-20T06:25:07;92691.75;;;14.13;74.36
10988;BME280;5547;42.672;23.230;2022-11-20T06:27:32;92700.22;;;14.20;74.35
10988;BME280;5547;42.672;23.230;2022-11-20T06:29:57;92694.31;;;14.35;73.61
10988;BME280;5547;42.672;23.230;2022-11-20T06:32:23;92697.78;;;14.44;73.07
10988;BME280;5547;42.672;23.230;2022-11-20T06:34:49;92701.97;;;14.55;73.69
10988;BME280;5547;42.672;23.230;2022-11-20T06:37:16;92696.78;;;14.79;72.75
10988;BME280;5547;42.672;23.230;2022-11-20T06:39:42;92717.31;;;14.91;71.64
10988;BME280;5547;42.672;23.230;2022-11-20T06:42:07;92695.75;;;15.04;71.09
10988;BME280;5547;42.672;23.230;2022-11-20T06:44:32;92716.72;;;15.15;70.73
10988;BME280;5547;42.672;23.230;2022-11-20T06:46:58;92712.38;;;15.36;69.04
10988;BME280;5547;42.672;23.230;2022-11-20T06:49:23;92703.88;;;15.55;69.08
10988;BME280;5547;42.672;23.230;2022-11-20T06:51:48;92712.63;;;15.74;68.18
10988;BME280;5547;42.672;23.230;2022-11-20T06:54:14;92716.34;;;15.77;67.17
10988;BME280;5547;42.672;23.230;2022-11-20T06:56:39;92713.63;;;15.86;67.24
10988;BME280;5547;42.672;23.230;2022-11-20T06:59:05;92704.09;;;15.94;67.67
10988;BME280;5547;42.672;23.230;2022-11-20T07:01:31;92716.63;;;15.88;67.26
10988;BME280;5547;42.672;23.230;2022-11-20T07:03:56;92725.97;;;15.93;67.55
10988;BME280;5547;42.672;23.230;2022-11-20T07:06:22;92725.13;;;15.78;67.60
10988;BME280;5547;42.672;23.230;2022-11-20T07:08:47;92712.97;;;15.49;69.57
10988;BME280;5547;42.672;23.230;2022-11-20T07:11:12;92720.13;;;15.33;69.69
10988;BME280;5547;42.672;23.230;2022-11-20T07:13:38;92704.66;;;15.10;70.64
10988;BME280;5547;42.672;23.230;2022-11-20T07:16:04;92709.91;;;14.95;71.44
10988;BME280;5547;42.672;23.230;2022-11-20T07:18:30;92715.38;;;14.82;71.70
10988;BME280;5547;42.672;23.230;2022-11-20T07:20:55;92698.56;;;14.63;72.53
10988;BME280;5547;42.672;23.230;2022-11-20T07:23:21;92712.69;;;14.64;73.22
10988;BME280;5547;42.672;23.230;2022-11-20T07:25:49;92714.59;;;14.54;73.26
10988;BME280;5547;42.672;23.230;2022-11-20T07:28:15;92725.88;;;14.49;73.77
10988;BME280;5547;42.672;23.230;2022-11-20T07:30:40;92703.25;;;14.41;74.44
10988;BME280;5547;42.672;23.230;2022-11-20T07:33:05;92709.50;;;14.38;73.98
10988;BME280;5547;42.672;23.230;2022-11-20T07:35:31;92706.50;;;14.36;74.04
10988;BME280;5547;42.672;23.230;2022-11-20T07:37:59;92705.03;;;14.44;74.14
10988;BME280;5547;42.672;23.230;2022-11-20T07:40:25;92715.47;;;14.42;74.22
10988;BME280;5547;42.672;23.230;2022-11-20T07:42:51;92707.88;;;14.40;74.08
10988;BME280;5547;42.672;23.230;2022-11-20T07:45:19;92694.63;;;14.46;73.04
10988;BME280;5547;42.672;23.230;2022-11-20T07:47:45;92703.13;;;14.44;74.10
10988;BME280;5547;42.672;23.230;2022-11-20T07:50:11;92696.63;;;14.55;72.79
10988;BME280;5547;42.672;23.230;2022-11-20T07:52:37;92694.53;;;14.59;72.22
10988;BME280;5547;42.672;23.230;2022-11-20T07:55:05;92714.47;;;14.76;70.72
10988;BME280;5547;42.672;23.230;2022-11-20T07:57:31;92720.88;;;14.79;70.41
10988;BME280;5547;42.672;23.230;2022-11-20T07:59:56;92725.06;;;14.89;70.39
10988;BME280;5547;42.672;23.230;2022-11-20T08:02:22;92729.06;;;14.94;70.41
10988;BME280;5547;42.672;23.230;2022-11-20T08:04:47;92725.81;;;14.99;71.02
10988;BME280;5547;42.672;23.230;2022-11-20T08:07:12;92728.19;;;15.06;70.19
10988;BME280;5547;42.672;23.230;2022-11-20T08:09:38;92720.31;;;15.11;70.89
10988;BME280;5547;42.672;23.230;2022-11-20T08:12:03;92718.50;;;15.18;70.07
10988;BME280;5547;42.672;23.230;2022-11-20T08:14:47;92738.44;;;15.17;70.93
10988;BME280;5547;42.672;23.230;2022-11-20T08:17:12;92721.63;;;15.25;70.99
10988;BME280;5547;42.672;23.230;2022-11-20T08:19:38;92731.31;;;15.32;71.96
10988;BME280;5547;42.672;23.230;2022-11-20T08:22:03;92713.75;;;15.22;73.63
10988;BME280;5547;42.672;23.230;2022-11-20T08:24:28;92729.97;;;15.18;75.49
10988;BME280;5547;42.672;23.230;2022-11-20T08:26:56;92743.19;;;15.03;76.12
10988;BME280;5547;42.672;23.230;2022-11-20T08:29:22;92757.91;;;14.89;76.28
10988;BME280;5547;42.672;23.230;2022-11-20T08:31:47;92760.47;;;14.93;77.71
10988;BME280;5547;42.672;23.230;2022-11-20T08:34:13;92762.66;;;14.76;77.89
10988;BME280;5547;42.672;23.230;2022-11-20T08:36:38;92764.78;;;14.81;77.87
10988;BME280;5547;42.672;23.230;2022-11-20T08:39:03;92776.84;;;14.95;77.58
10988;BME280;5547;42.672;23.230;2022-11-20T08:41:29;92791.66;;;14.78;79.71
10988;BME280;5547;42.672;23.230;2022-11-20T08:44:04;92801.50;;;14.40;82.42
10988;BME280;5547;42.672;23.230;2022-11-20T08:46:34;92798.84;;;14.09;86.18
10988;BME280;5547;42.672;23.230;2022-11-20T08:49:01;92810.00;;;13.85;88.05
10988;BME280;5547;42.672;23.230;2022-11-20T08:51:27;92787.94;;;13.72;89.88
10988;BME280;5547;42.672;23.230;2022-11-20T08:53:52;92797.47;;;13.73;91.26
10988;BME280;5547;42.672;23.230;2022-11-20T08:56:17;92787.94;;;13.72;91.97
10988;BME280;5547;42.672;23.230;2022-11-20T08:58:44;92785.09;;;13.66;91.64
10988;BME280;5547;42.672;23.230;2022-11-20T09:01:09;92795.34;;;13.68;91.87
10988;BME280;5547;42.672;23.230;2022-11-20T09:03:35;92794.59;;;13.68;91.49
10988;BME280;5547;42.672;23.230;2022-11-20T09:06:02;92796.78;;;13.60;92.34
10988;BME280;5547;42.672;23.230;2022-11-20T09:08:30;92795.56;;;13.52;93.24
10988;BME280;5547;42.672;23.230;2022-11-20T09:10:57;92799.19;;;13.67;91.90
10988;BME280;5547;42.672;23.230;2022-11-20T09:13:24;92809.69;;;13.39;92.52
10988;BME280;5547;42.672;23.230;2022-11-20T09:15:56;92814.72;;;13.37;92.98
10988;BME280;5547;42.672;23.230;2022-11-20T09:18:22;92809.63;;;13.30;94.36
10988;BME280;5547;42.672;23.230;2022-11-20T09:20:48;92817.84;;;13.23;94.75
10988;BME280;5547;42.672;23.230;2022-11-20T09:23:14;92805.84;;;13.06;95.08
10988;BME280;5547;42.672;23.230;2022-11-20T09:25:41;92796.88;;;12.99;96.97
10988;BME280;5547;42.672;23.230;2022-11-20T09:28:06;92793.72;;;12.79;95.77
10988;BME280;5547;42.672;23.230;2022-11-20T09:30:32;92790.72;;;12.90;97.07
10988;BME280;5547;42.672;23.230;2022-11-20T09:32:59;92786.53;;;13.01;95.71
10988;BME280;5547;42.672;23.230;2022-11-20T09:35:24;92763.50;;;13.17;96.82
10988;BME280;5547;42.672;23.230;2022-11-20T09:37:49;92754.06;;;13.25;95.03
10988;BME280;5547;42.672;23.230;2022-11-20T09:40:22;92747.09;;;13.40;95.13
10988;BME280;5547;42.672;23.230;2022-11-20T09:50:33;92739.63;;;13.57;91.22
10988;BME280;5547;42.672;23.230;2022-11-20T09:55:27;92718.91;;;13.71;92.54
10988;BME280;5547;42.672;23.230;2022-11-20T09:57:54;92710.75;;;13.74;92.59
10988;BME280;5547;42.672;23.230;2022-11-20T10:00:21;92703.66;;;13.80;92.16
10988;BME280;5547;42.672;23.230;2022-11-20T10:03:11;92696.84;;;13.88;90.86
10988;BME280;5547;42.672;23.230;2022-11-20T10:13:17;92711.28;;;14.50;87.39
10988;BME280;5547;42.672;23.230;2022-11-20T10:31:12;92755.53;;;14.73;85.89
10988;BME280;5547;42.672;23.230;2022-11-20T10:33:40;92756.03;;;14.40;87.87
10988;BME280;5547;42.672;23.230;2022-11-20T10:36:08;92757.78;;;13.94;90.31
10988;BME280;5547;42.672;23.230;2022-11-20T10:38:40;92748.22;;;13.83;90.99
10988;BME280;5547;42.672;23.230;2022-11-20T10:41:07;92751.84;;;13.68;92.29
10988;BME280;5547;42.672;23.230;2022-11-20T10:43:53;92752.72;;;13.64;92.87
10988;BME280;5547;42.672;23.230;2022-11-20T10:46:23;92748.47;;;13.45;93.47
10988;BME280;5547;42.672;23.230;2022-11-20T10:48:50;92747.09;;;13.40;93.84
10988;BME280;5547;42.672;23.230;2022-11-20T10:51:18;92758.94;;;13.39;95.07
10988;BME280;5547;42.672;23.230;2022-11-20T10:56:38;92761.06;;;12.75;92.23
10988;BME280;5547;42.672;23.230;2022-11-20T11:01:42;92810.44;;;12.32;94.84
10988;BME280;5547;42.672;23.230;2022-11-20T11:06:51;92801.34;;;11.03;97.91
10988;BME280;5547;42.672;23.230;2022-11-20T11:09:21;92791.69;;;10.47;99.14
10988;BME280;5547;42.672;23.230;2022-11-20T11:11:51;92779.97;;;10.28;99.40
10988;BME280;5547;42.672;23.230;2022-11-20T11:14:17;92772.63;;;10.16;100.00
10988;BME280;5547;42.672;23.230;2022-11-20T11:16:52;92773.84;;;10.12;100.00
10988;BME280;5547;42.672;23.230;2022-11-20T11:19:17;92772.44;;;10.07;99.85
10988;BME280;5547;42.672;23.230;2022-11-20T11:22:16;92779.66;;;10.06;100.00
10988;BME280;5547;42.672;23.230;2022-11-20T11:24:30;92765.47;;;9.97;100.00
10988;BME280;5547;42.672;23.230;2022-11-20T11:26:59;92757.09;;;9.98;100.00
10988;BME280;5547;42.672;23.230;2022-11-20T11:29:32;92744.44;;;10.02;100.00
10988;BME280;5547;42.672;23.230;2022-11-20T11:34:29;92752.13;;;10.17;100.00
10988;BME280;5547;42.672;23.230;2022-11-20T11:36:57;92758.19;;;10.17;100.00
10988;BME280;5547;42.672;23.230;2022-11-20T11:39:24;92772.38;;;10.27;98.67
10988;BME280;5547;42.672;23.230;2022-11-20T11:41:51;92773.56;;;10.26;100.00
10988;BME280;5547;42.672;23.230;2022-11-20T11:44:23;92771.63;;;10.26;99.86
10988;BME280;5547;42.672;23.230;2022-11-20T11:47:29;92761.75;;;10.27;99.05
10988;BME280;5547;42.672;23.230;2022-11-20T11:52:35;92764.53;;;10.40;98.44
10988;BME280;5547;42.672;23.230;2022-11-20T11:55:03;92756.63;;;10.36;99.50
10988;BME280;5547;42.672;23.230;2022-11-20T12:00:11;92762.78;;;10.49;97.79
10988;BME280;5547;42.672;23.230;2022-11-20T12:05:18;92752.19;;;10.62;97.34
10988;BME280;5547;42.672;23.230;2022-11-20T12:12:55;92743.22;;;10.72;94.67
10988;BME280;5547;42.672;23.230;2022-11-20T12:15:30;92750.28;;;10.79;95.14
10988;BME280;5547;42.672;23.230;2022-11-20T12:17:56;92742.31;;;10.79;95.58
10988;BME280;5547;42.672;23.230;2022-11-20T12:20:22;92748.09;;;10.74;95.48
10988;BME280;5547;42.672;23.230;2022-11-20T12:23:05;92743.63;;;10.71;93.00
10988;BME280;5547;42.672;23.230;2022-11-20T12:25:34;92747.22;;;10.64;96.26
10988;BME280;5547;42.672;23.230;2022-11-20T12:30:26;92737.06;;;10.76;90.16
10988;BME280;5547;42.672;23.230;2022-11-20T12:41:08;92698.53;;;10.51;96.27
10988;BME280;5547;42.672;23.230;2022-11-20T12:44:00;92697.09;;;10.63;92.31
10988;BME280;5547;42.672;23.230;2022-11-20T12:49:11;92687.88;;;10.97;91.12
10988;BME280;5547;42.672;23.230;2022-11-20T12:51:48;92660.16;;;11.23;86.41
10988;BME280;5547;42.672;23.230;2022-11-20T13:06:54;92647.53;;;11.78;91.86
10988;BME280;5547;42.672;23.230;2022-11-20T13:09:20;92641.13;;;11.89;92.86
10988;BME280;5547;42.672;23.230;2022-11-20T13:19:52;92700.06;;;12.04;93.75
10988;BME280;5547;42.672;23.230;2022-11-20T13:22:25;92701.03;;;11.97;93.80
10988;BME280;5547;42.672;23.230;2022-11-20T13:24:51;92710.50;;;11.72;94.82
10988;BME280;5547;42.672;23.230;2022-11-20T13:27:18;92725.56;;;11.37;93.74
10988;BME280;5547;42.672;23.230;2022-11-20T13:29:45;92719.00;;;11.12;95.39
10988;BME280;5547;42.672;23.230;2022-11-20T13:32:17;92717.47;;;10.99;97.08
10988;BME280;5547;42.672;23.230;2022-11-20T13:34:53;92723.78;;;11.05;97.38
10988;BME280;5547;42.672;23.230;2022-11-20T13:37:58;92723.84;;;11.01;97.46
10988;BME280;5547;42.672;23.230;2022-11-20T13:40:12;92723.72;;;10.92;97.25
10988;BME280;5547;42.672;23.230;2022-11-20T13:42:39;92721.56;;;10.87;99.24
10988;BME280;5547;42.672;23.230;2022-11-20T13:45:09;92720.41;;;10.88;99.79
10988;BME280;5547;42.672;23.230;2022-11-20T13:47:36;92734.78;;;10.90;99.14
10988;BME280;5547;42.672;23.230;2022-11-20T13:50:02;92735.81;;;10.80;98.90
10988;BME280;5547;42.672;23.230;2022-11-20T14:00:16;92732.91;;;10.75;100.00
10988;BME280;5547;42.672;23.230;2022-11-20T14:02:42;92735.66;;;10.71;100.00
10988;BME280;5547;42.672;23.230;2022-11-20T14:05:26;92736.22;;;10.79;100.00
10988;BME280;5547;42.672;23.230;2022-11-20T14:07:51;92730.66;;;10.73;100.00
10988;BME280;5547;42.672;23.230;2022-11-20T14:10:21;92739.91;;;10.68;100.00
10988;BME280;5547;42.672;23.230;2022-11-20T14:12:46;92739.34;;;10.61;100.00
10988;BME280;5547;42.672;23.230;2022-11-20T14:15:23;92740.16;;;10.58;100.00
10988;BME280;5547;42.672;23.230;2022-11-20T14:17:49;92735.34;;;10.52;99.38
10988;BME280;5547;42.672;23.230;2022-11-20T14:20:14;92735.28;;;10.56;98.57
10988;BME280;5547;42.672;23.230;2022-11-20T14:22:47;92728.34;;;10.75;95.56
10988;BME280;5547;42.672;23.230;2022-11-20T14:27:39;92726.19;;;10.54;92.63
10988;BME280;5547;42.672;23.230;2022-11-20T14:30:06;92738.66;;;10.57;92.76
10988;BME280;5547;42.672;23.230;2022-11-20T14:32:37;92752.31;;;10.42;92.38
10988;BME280;5547;42.672;23.230;2022-11-20T14:35:06;92744.06;;;10.37;93.40
10988;BME280;5547;42.672;23.230;2022-11-20T14:37:36;92748.72;;;10.33;94.23
10988;BME280;5547;42.672;23.230;2022-11-20T14:40:02;92740.00;;;10.48;92.76
10988;BME280;5547;42.672;23.230;2022-11-20T14:42:28;92746.31;;;10.38;92.92
10988;BME280;5547;42.672;23.230;2022-11-20T14:44:59;92746.84;;;10.33;93.13
10988;BME280;5547;42.672;23.230;2022-11-20T14:47:26;92745.50;;;10.41;92.31
10988;BME280;5547;42.672;23.230;2022-11-20T14:49:53;92754.53;;;10.27;94.14